createdAt,value
2023-03-04T00:00:10.483Z,4.70
2023-03-04T00:02:38.929Z,4.70
2023-03-04T00:05:08.051Z,4.70
2023-03-04T00:07:36.040Z,4.80
2023-03-04T00:10:04.253Z,4.70
2023-03-04T00:12:32.262Z,4.70
2023-03-04T00:15:01.608Z,4.70
2023-03-04T00:17:31.561Z,4.60
2023-03-04T00:19:59.808Z,4.70
2023-03-04T00:22:27.879Z,4.70
2023-03-04T00:24:55.876Z,4.60
2023-03-04T00:27:23.834Z,4.60
2023-03-04T00:29:51.813Z,4.60
2023-03-04T00:32:21.232Z,4.60
2023-03-04T00:34:49.281Z,4.60
2023-03-04T00:37:17.268Z,4.60
2023-03-04T00:39:45.258Z,4.60
2023-03-04T00:42:13.396Z,4.60
2023-03-04T00:44:41.387Z,4.50
2023-03-04T00:47:09.607Z,4.50
2023-03-04T00:49:38.971Z,4.50
2023-03-04T00:52:07.199Z,4.40
2023-03-04T00:54:35.196Z,4.40
2023-03-04T00:57:03.259Z,4.40
2023-03-04T00:59:31.232Z,4.50
2023-03-04T01:01:59.259Z,4.50
2023-03-04T01:04:27.409Z,4.50
2023-03-04T01:06:57.118Z,4.50
2023-03-04T01:09:26.757Z,4.50
2023-03-04T01:11:54.870Z,4.60
2023-03-04T01:14:22.889Z,4.60
2023-03-04T01:16:51.010Z,4.60
2023-03-04T01:19:19.207Z,4.50
2023-03-04T01:21:47.168Z,4.60
2023-03-04T01:24:18.026Z,4.50
2023-03-04T01:26:45.966Z,4.50
2023-03-04T01:29:14.025Z,4.50
2023-03-04T01:31:44.672Z,4.60
2023-03-04T01:34:13.965Z,4.70
2023-03-04T01:36:41.964Z,4.70
2023-03-04T01:39:09.998Z,4.70
2023-03-04T01:41:39.389Z,4.60
2023-03-04T01:44:07.836Z,4.70
2023-03-04T01:46:36.011Z,4.70
2023-03-04T01:49:04.214Z,4.80
2023-03-04T01:51:32.250Z,4.80
2023-03-04T01:54:00.223Z,4.90
2023-03-04T01:56:31.620Z,4.90
2023-03-04T01:59:13.487Z,4.90
2023-03-04T02:01:43.719Z,4.90
2023-03-04T02:04:12.912Z,5.00
2023-03-04T02:06:42.207Z,4.90
2023-03-04T02:09:11.035Z,4.90
2023-03-04T02:11:39.839Z,4.90
2023-03-04T02:14:10.676Z,4.90
2023-03-04T02:16:39.091Z,5.00
2023-03-04T02:19:10.529Z,4.90
2023-03-04T02:21:38.873Z,4.90
2023-03-04T02:24:15.253Z,5.00
2023-03-04T02:26:46.865Z,5.00
2023-03-04T02:29:17.886Z,4.90
2023-03-04T02:31:47.879Z,5.00
2023-03-04T02:34:17.482Z,5.00
2023-03-04T02:36:46.966Z,4.90
2023-03-04T02:39:24.388Z,5.00
2023-03-04T02:41:56.136Z,5.00
2023-03-04T02:44:27.388Z,5.00
2023-03-04T02:46:55.912Z,5.00
2023-03-04T02:49:26.483Z,5.00
2023-03-04T02:52:01.700Z,5.00
2023-03-04T02:54:29.934Z,4.90
2023-03-04T02:57:03.875Z,5.00
2023-03-04T02:59:35.814Z,5.00
2023-03-04T03:02:05.281Z,5.00
2023-03-04T03:04:35.773Z,5.00
2023-03-04T03:07:08.507Z,5.00
2023-03-04T03:09:36.975Z,5.00
2023-03-04T03:12:06.647Z,5.00
2023-03-04T03:14:35.070Z,4.90
2023-03-04T03:17:04.840Z,4.90
2023-03-04T03:19:33.144Z,4.90
2023-03-04T03:22:05.473Z,4.90
2023-03-04T03:24:33.660Z,5.00
2023-03-04T03:27:01.759Z,4.90
2023-03-04T03:29:31.240Z,5.00
2023-03-04T03:32:00.008Z,5.00
2023-03-04T03:34:28.763Z,5.00
2023-03-04T03:36:56.780Z,5.00
2023-03-04T03:39:25.058Z,5.00
2023-03-04T03:41:54.129Z,5.00
2023-03-04T03:44:22.174Z,5.10
2023-03-04T03:46:51.525Z,5.00
2023-03-04T03:49:19.502Z,5.00
2023-03-04T03:51:47.449Z,5.00
2023-03-04T03:54:15.437Z,5.00
2023-03-04T03:56:43.450Z,5.00
2023-03-04T03:59:11.444Z,5.00
2023-03-04T04:01:39.428Z,5.10
2023-03-04T04:04:08.898Z,5.00
2023-03-04T04:06:36.836Z,5.00
2023-03-04T04:09:04.938Z,5.00
2023-03-04T04:11:32.978Z,5.00
2023-03-04T04:14:00.964Z,5.00
2023-03-04T04:16:29.050Z,5.00
2023-03-04T04:18:57.036Z,4.90
2023-03-04T04:21:26.354Z,4.90
2023-03-04T04:23:54.329Z,4.90
2023-03-04T04:26:22.318Z,5.00
2023-03-04T04:28:50.388Z,5.00
2023-03-04T04:31:18.369Z,5.00
2023-03-04T04:33:46.327Z,5.00
2023-03-04T04:36:15.329Z,5.00
2023-03-04T04:38:45.179Z,5.10
2023-03-04T04:41:20.735Z,4.90
2023-03-04T04:43:48.772Z,5.00
2023-03-04T04:46:17.743Z,4.90
2023-03-04T04:48:46.783Z,5.00
2023-03-04T04:51:15.088Z,5.00
2023-03-04T04:53:44.934Z,5.10
2023-03-04T04:56:15.194Z,5.00
2023-03-04T04:58:43.588Z,5.00
2023-03-04T05:01:12.072Z,5.00
2023-03-04T05:03:40.683Z,4.90
2023-03-04T05:06:10.672Z,5.00
2023-03-04T05:08:38.643Z,5.00
2023-03-04T05:11:08.547Z,4.90
2023-03-04T05:13:36.863Z,4.90
2023-03-04T05:16:05.635Z,4.90
2023-03-04T05:18:33.974Z,4.90
2023-03-04T05:21:03.973Z,5.00
2023-03-04T05:23:34.382Z,5.10
2023-03-04T05:26:02.683Z,5.00
2023-03-04T05:28:32.105Z,5.00
2023-03-04T05:31:00.173Z,5.00
2023-03-04T05:33:28.351Z,5.00
2023-03-04T05:35:56.452Z,5.10
2023-03-04T05:38:25.567Z,5.10
2023-03-04T05:40:57.999Z,5.00
2023-03-04T05:43:26.341Z,5.10
2023-03-04T05:45:55.934Z,5.00
2023-03-04T05:48:24.432Z,5.00
2023-03-04T05:50:55.515Z,4.90
2023-03-04T05:53:24.116Z,5.00
2023-03-04T05:55:52.308Z,5.00
2023-03-04T05:58:20.460Z,4.90
2023-03-04T06:00:49.395Z,5.00
2023-03-04T06:03:20.390Z,5.00
2023-03-04T06:05:48.740Z,5.10
2023-03-04T06:08:16.875Z,5.10
2023-03-04T06:10:44.904Z,5.00
2023-03-04T06:13:13.343Z,5.10
2023-03-04T06:15:41.361Z,5.00
2023-03-04T06:18:09.553Z,5.00
2023-03-04T06:20:39.166Z,5.00
2023-03-04T06:23:07.206Z,5.10
2023-03-04T06:25:35.209Z,5.00
2023-03-04T06:28:03.231Z,5.00
2023-03-04T06:30:31.367Z,5.10
2023-03-04T06:32:59.363Z,5.10
2023-03-04T06:35:27.351Z,5.10
2023-03-04T06:37:56.726Z,5.10
2023-03-04T06:40:24.741Z,5.10
2023-03-04T06:42:52.736Z,5.10
2023-03-04T06:45:20.801Z,5.10
2023-03-04T06:47:48.734Z,5.10
2023-03-04T06:50:16.700Z,5.10
2023-03-04T06:52:44.671Z,5.10
2023-03-04T06:55:13.995Z,5.10
2023-03-04T06:57:42.117Z,5.00
2023-03-04T07:00:11.397Z,5.10
2023-03-04T07:02:39.717Z,5.10
2023-03-04T07:05:08.527Z,5.20
2023-03-04T07:07:36.571Z,5.20
2023-03-04T07:10:05.795Z,5.20
2023-03-04T07:12:35.586Z,5.20
2023-03-04T07:15:03.808Z,5.40
2023-03-04T07:17:31.989Z,5.40
2023-03-04T07:20:00.153Z,5.40
2023-03-04T07:22:28.155Z,5.40
2023-03-04T07:24:56.168Z,5.40
2023-03-04T07:27:24.404Z,5.40
2023-03-04T07:29:53.801Z,5.40
2023-03-04T07:32:21.904Z,5.40
2023-03-04T07:34:49.941Z,5.40
2023-03-04T07:37:18.130Z,5.40
2023-03-04T07:39:46.141Z,5.50
2023-03-04T07:42:14.139Z,5.40
2023-03-04T07:44:43.644Z,5.50
2023-03-04T07:47:13.057Z,5.60
2023-03-04T07:49:41.042Z,5.50
2023-03-04T07:52:09.439Z,5.50
2023-03-04T07:54:37.631Z,5.60
2023-03-04T07:57:05.613Z,5.60
2023-03-04T07:59:33.615Z,5.60
2023-03-04T08:02:01.660Z,5.60
2023-03-04T08:04:31.228Z,5.70
2023-03-04T08:06:59.290Z,5.70
2023-03-04T08:09:27.348Z,5.70
2023-03-04T08:11:55.313Z,5.70
2023-03-04T08:14:23.263Z,5.80
2023-03-04T08:16:51.241Z,5.70
2023-03-04T08:19:19.236Z,5.90
2023-03-04T08:21:48.623Z,6.10
2023-03-04T08:24:16.624Z,6.40
2023-03-04T08:26:46.995Z,6.80
2023-03-04T08:29:17.149Z,6.90
2023-03-04T08:31:48.801Z,7.00
2023-03-04T08:34:18.369Z,7.00
2023-03-04T08:36:47.835Z,7.00
2023-03-04T08:39:18.062Z,7.00
2023-03-04T08:41:46.993Z,6.80
2023-03-04T08:44:15.132Z,6.80
2023-03-04T08:46:44.275Z,6.80
2023-03-04T08:49:14.362Z,7.70
2023-03-04T08:51:42.784Z,9.50
2023-03-04T08:54:12.286Z,11.40
2023-03-04T08:56:42.220Z,12.30
2023-03-04T08:59:10.193Z,12.30
2023-03-04T09:01:38.256Z,11.50
2023-03-04T09:04:06.609Z,11.40
2023-03-04T09:06:34.606Z,11.10
2023-03-04T09:09:03.505Z,10.50
2023-03-04T09:11:32.977Z,10.50
2023-03-04T09:14:01.000Z,9.90
2023-03-04T09:16:29.117Z,9.60
2023-03-04T09:18:57.101Z,9.70
2023-03-04T09:21:25.191Z,9.30
2023-03-04T09:23:53.183Z,9.80
2023-03-04T09:26:23.785Z,9.60
2023-03-04T09:28:54.168Z,9.00
2023-03-04T09:31:23.380Z,8.60
2023-03-04T09:33:52.004Z,8.20
2023-03-04T09:36:20.306Z,8.30
2023-03-04T09:38:48.477Z,8.70
2023-03-04T09:41:19.353Z,9.00
2023-03-04T09:43:49.068Z,9.60
2023-03-04T09:46:23.442Z,9.30
2023-03-04T09:48:53.675Z,9.60
2023-03-04T09:51:31.636Z,9.20
2023-03-04T09:54:08.905Z,8.60
2023-03-04T09:56:39.600Z,8.80
2023-03-04T09:59:17.156Z,8.90
2023-03-04T10:01:51.057Z,9.00
2023-03-04T10:04:23.533Z,8.70
2023-03-04T10:06:54.538Z,8.30
2023-03-04T10:09:26.348Z,8.30
2023-03-04T10:12:02.785Z,8.30
2023-03-04T10:14:38.335Z,8.70
2023-03-04T10:17:14.430Z,9.10
2023-03-04T10:19:55.327Z,9.00
2023-03-04T10:22:29.901Z,9.30
2023-03-04T10:24:59.769Z,9.60
2023-03-04T10:27:30.061Z,9.70
2023-03-04T10:30:00.243Z,9.80
2023-03-04T10:32:29.981Z,9.60
2023-03-04T10:34:58.034Z,9.20
2023-03-04T10:37:43.803Z,9.10
2023-03-04T10:40:21.444Z,8.70
2023-03-04T10:42:50.519Z,8.30
2023-03-04T10:45:23.441Z,8.10
2023-03-04T10:47:57.096Z,7.90
2023-03-04T10:50:26.955Z,8.10
2023-03-04T10:52:55.877Z,8.40
2023-03-04T10:55:27.258Z,9.20
2023-03-04T10:57:58.063Z,10.40
2023-03-04T11:00:31.938Z,10.90
2023-03-04T11:03:29.226Z,11.30
2023-03-04T11:06:11.211Z,10.50
2023-03-04T11:08:42.142Z,10.50
2023-03-04T11:11:24.797Z,10.90
2023-03-04T11:13:54.284Z,11.10
2023-03-04T11:16:27.383Z,11.70
2023-03-04T11:19:01.233Z,11.50
2023-03-04T11:21:32.715Z,11.10
2023-03-04T11:24:02.938Z,10.70
2023-03-04T11:26:35.063Z,10.20
2023-03-04T11:29:09.500Z,9.60
2023-03-04T11:31:43.943Z,9.20
2023-03-04T11:34:20.954Z,8.80
2023-03-04T11:36:57.139Z,8.80
2023-03-04T11:39:32.517Z,8.70
2023-03-04T11:42:06.261Z,8.90
2023-03-04T11:44:34.364Z,9.00
2023-03-04T11:47:30.699Z,8.90
2023-03-04T11:50:31.552Z,9.00
2023-03-04T11:53:31.003Z,9.10
2023-03-04T11:56:12.980Z,9.30
2023-03-04T11:59:06.358Z,9.40
2023-03-04T12:01:42.665Z,9.50
2023-03-04T12:04:36.731Z,9.40
2023-03-04T12:07:22.832Z,9.70
2023-03-04T12:10:02.072Z,9.90
2023-03-04T12:12:45.397Z,10.00
2023-03-04T12:15:21.685Z,10.00
2023-03-04T12:18:16.142Z,9.50
2023-03-04T12:20:58.239Z,9.10
2023-03-04T12:23:39.462Z,8.80
2023-03-04T12:26:11.542Z,8.80
2023-03-04T12:28:52.387Z,8.80
2023-03-04T12:31:35.302Z,8.70
2023-03-04T12:34:29.996Z,8.80
2023-03-04T12:37:10.429Z,8.80
2023-03-04T12:39:42.721Z,8.70
2023-03-04T12:42:22.838Z,8.60
2023-03-04T12:44:59.722Z,8.60
2023-03-04T12:47:38.660Z,8.50
2023-03-04T12:50:28.051Z,8.70
2023-03-04T12:53:03.864Z,8.80
2023-03-04T12:55:38.262Z,8.90
2023-03-04T12:58:08.169Z,9.00
2023-03-04T13:00:47.171Z,9.20
2023-03-04T13:03:20.156Z,9.40
2023-03-04T13:06:11.899Z,9.40
2023-03-04T13:08:51.308Z,9.20
2023-03-04T13:11:55.105Z,9.10
2023-03-04T13:14:33.075Z,9.00
2023-03-04T13:17:02.934Z,8.90
2023-03-04T13:19:52.556Z,8.90
2023-03-04T13:22:57.226Z,8.80
2023-03-04T13:25:43.955Z,9.00
2023-03-04T13:28:27.237Z,9.10
2023-03-04T13:31:20.413Z,9.30
2023-03-04T13:34:06.729Z,9.40
2023-03-04T13:36:59.434Z,9.30
2023-03-04T13:39:37.199Z,9.10
2023-03-04T13:42:21.223Z,9.00
2023-03-04T13:45:01.250Z,8.80
2023-03-04T13:47:43.082Z,8.70
2023-03-04T13:50:39.203Z,8.60
2023-03-04T13:53:41.623Z,8.50
2023-03-04T13:56:31.336Z,8.50
2023-03-04T13:59:28.071Z,8.70
2023-03-04T14:01:59.868Z,8.80
2023-03-04T14:04:35.581Z,9.00
2023-03-04T14:07:17.904Z,9.20
2023-03-04T14:09:56.248Z,9.20
2023-03-04T14:12:24.478Z,9.00
2023-03-04T14:14:54.894Z,8.90
2023-03-04T14:17:26.549Z,8.80
2023-03-04T14:19:56.495Z,8.70
2023-03-04T14:22:30.595Z,8.60
2023-03-04T14:25:03.599Z,8.50
2023-03-04T14:27:35.358Z,8.50
2023-03-04T14:30:05.428Z,8.50
2023-03-04T14:32:33.594Z,8.40
2023-03-04T14:35:06.644Z,8.40
2023-03-04T14:37:43.789Z,8.40
2023-03-04T14:40:21.624Z,8.20
2023-03-04T14:42:53.422Z,8.30
2023-03-04T14:45:23.382Z,8.30
2023-03-04T14:47:55.524Z,8.30
2023-03-04T14:50:24.944Z,8.30
2023-03-04T14:53:14.210Z,8.30
2023-03-04T14:55:56.792Z,8.20
2023-03-04T14:58:26.814Z,8.20
2023-03-04T15:01:06.758Z,8.30
2023-03-04T15:03:36.041Z,8.40
2023-03-04T15:06:19.375Z,8.30
2023-03-04T15:08:55.476Z,8.40
2023-03-04T15:11:26.491Z,8.40
2023-03-04T15:13:56.886Z,8.40
2023-03-04T15:16:26.943Z,8.30
2023-03-04T15:19:00.014Z,8.20
2023-03-04T15:21:34.059Z,8.20
2023-03-04T15:24:03.640Z,8.20
2023-03-04T15:26:33.831Z,8.20
2023-03-04T15:29:05.710Z,8.10
2023-03-04T15:31:33.714Z,8.00
2023-03-04T15:34:01.696Z,7.90
2023-03-04T15:36:31.096Z,7.90
2023-03-04T15:38:59.248Z,7.80
2023-03-04T15:41:28.256Z,7.70
2023-03-04T15:43:56.228Z,7.70
2023-03-04T15:46:24.496Z,7.60
2023-03-04T15:48:52.560Z,7.60
2023-03-04T15:51:23.094Z,7.60
2023-03-04T15:53:53.654Z,7.40
2023-03-04T15:56:24.004Z,7.40
2023-03-04T15:58:56.119Z,7.40
2023-03-04T16:01:24.997Z,7.40
2023-03-04T16:03:53.863Z,7.40
2023-03-04T16:06:23.525Z,7.40
2023-03-04T16:08:53.499Z,7.40
2023-03-04T16:11:23.709Z,7.40
2023-03-04T16:13:51.893Z,7.40
2023-03-04T16:16:20.309Z,7.40
2023-03-04T16:18:48.558Z,7.40
2023-03-04T16:21:19.178Z,7.40
2023-03-04T16:23:50.581Z,7.40
2023-03-04T16:26:22.559Z,7.40
2023-03-04T16:28:51.244Z,7.40
2023-03-04T16:31:20.671Z,7.40
2023-03-04T16:33:49.228Z,7.40
2023-03-04T16:36:20.624Z,7.30
2023-03-04T16:38:48.860Z,7.20
2023-03-04T16:41:21.783Z,7.20
2023-03-04T16:43:49.752Z,7.10
2023-03-04T16:46:17.774Z,7.10
2023-03-04T16:48:45.775Z,7.10
2023-03-04T16:51:15.659Z,7.00
2023-03-04T16:53:45.787Z,7.00
2023-03-04T16:56:17.796Z,7.10
2023-03-04T16:58:47.789Z,7.10
2023-03-04T17:01:17.671Z,7.10
2023-03-04T17:03:45.771Z,7.10
2023-03-04T17:06:15.235Z,7.00
2023-03-04T17:08:43.667Z,7.00
2023-03-04T17:11:13.757Z,7.10
2023-03-04T17:13:41.767Z,7.00
2023-03-04T17:16:13.027Z,7.10
2023-03-04T17:18:41.190Z,7.00
2023-03-04T17:21:12.573Z,7.00
2023-03-04T17:23:40.580Z,6.90
2023-03-04T17:26:09.254Z,7.00
2023-03-04T17:28:38.041Z,7.00
2023-03-04T17:31:11.525Z,7.00
2023-03-04T17:33:39.605Z,7.00
2023-03-04T17:36:10.668Z,7.00
2023-03-04T17:38:40.097Z,7.00
2023-03-04T17:41:10.612Z,7.00
2023-03-04T17:43:39.102Z,7.00
2023-03-04T17:46:12.238Z,7.00
2023-03-04T17:48:41.289Z,7.00
2023-03-04T17:51:10.696Z,6.90
2023-03-04T17:53:39.580Z,6.90
2023-03-04T17:56:09.400Z,6.90
2023-03-04T17:58:38.376Z,6.90
2023-03-04T18:01:08.448Z,6.90
2023-03-04T18:03:37.831Z,6.90
2023-03-04T18:06:06.257Z,6.90
2023-03-04T18:08:34.480Z,6.90
2023-03-04T18:11:02.499Z,6.90
2023-03-04T18:13:30.786Z,6.80
2023-03-04T18:15:58.906Z,6.80
2023-03-04T18:18:27.000Z,6.80
2023-03-04T18:21:00.213Z,6.80
2023-03-04T18:23:28.650Z,6.70
2023-03-04T18:25:57.015Z,6.70
2023-03-04T18:28:25.670Z,6.70
2023-03-04T18:30:54.486Z,6.70
2023-03-04T18:33:22.937Z,6.70
2023-03-04T18:35:51.101Z,6.80
2023-03-04T18:38:20.747Z,6.80
2023-03-04T18:40:48.701Z,6.70
2023-03-04T18:43:16.666Z,6.80
2023-03-04T18:45:46.239Z,6.80
2023-03-04T18:48:14.443Z,6.80
2023-03-04T18:50:42.977Z,6.80
2023-03-04T18:53:11.559Z,6.70
2023-03-04T18:55:40.924Z,6.70
2023-03-04T18:58:08.964Z,6.70
2023-03-04T19:00:36.990Z,6.70
2023-03-04T19:03:09.097Z,6.70
2023-03-04T19:05:37.187Z,6.70
2023-03-04T19:08:06.775Z,6.60
2023-03-04T19:10:34.945Z,6.60
2023-03-04T19:13:04.361Z,6.60
2023-03-04T19:15:32.751Z,6.60
2023-03-04T19:18:00.744Z,6.60
2023-03-04T19:20:28.699Z,6.60
2023-03-04T19:22:56.696Z,6.60
2023-03-04T19:25:27.643Z,6.60
2023-03-04T19:27:56.395Z,6.60
2023-03-04T19:30:25.933Z,6.50
2023-03-04T19:32:55.010Z,6.50
2023-03-04T19:35:23.027Z,6.50
2023-03-04T19:37:51.069Z,6.60
2023-03-04T19:40:19.539Z,6.50
2023-03-04T19:42:47.609Z,6.50
2023-03-04T19:45:15.689Z,6.50
2023-03-04T19:47:45.110Z,6.50
2023-03-04T19:50:14.090Z,6.50
2023-03-04T19:52:43.207Z,6.50
2023-03-04T19:55:13.566Z,6.40
2023-03-04T19:57:42.792Z,6.40
2023-03-04T20:00:12.388Z,6.40
2023-03-04T20:02:42.111Z,6.40
2023-03-04T20:05:12.357Z,6.40
2023-03-04T20:07:40.792Z,6.40
2023-03-04T20:10:10.441Z,6.40
2023-03-04T20:12:38.460Z,6.40
2023-03-04T20:15:08.188Z,6.30
2023-03-04T20:17:36.546Z,6.30
2023-03-04T20:20:04.941Z,6.30
2023-03-04T20:22:34.653Z,6.30
2023-03-04T20:25:02.639Z,6.30
2023-03-04T20:27:30.825Z,6.30
2023-03-04T20:29:58.866Z,6.20
2023-03-04T20:32:26.921Z,6.20
2023-03-04T20:34:57.043Z,6.10
2023-03-04T20:37:25.199Z,6.10
2023-03-04T20:39:56.777Z,6.10
2023-03-04T20:42:24.870Z,6.00
2023-03-04T20:44:52.867Z,6.00
2023-03-04T20:47:20.873Z,6.00
2023-03-04T20:49:48.857Z,6.00
2023-03-04T20:52:18.741Z,5.90
2023-03-04T20:54:46.830Z,6.00
2023-03-04T20:57:16.211Z,5.90
2023-03-04T20:59:44.182Z,5.90
2023-03-04T21:02:15.419Z,5.90
2023-03-04T21:04:44.006Z,5.90
2023-03-04T21:07:12.367Z,5.90
2023-03-04T21:09:40.345Z,5.80
2023-03-04T21:12:08.826Z,5.80
2023-03-04T21:14:38.077Z,5.80
2023-03-04T21:17:06.672Z,5.70
2023-03-04T21:19:37.662Z,5.70
2023-03-04T21:22:05.876Z,5.70
2023-03-04T21:24:35.304Z,5.60
2023-03-04T21:27:04.461Z,5.60
2023-03-04T21:29:32.502Z,5.60
2023-03-04T21:32:22.261Z,5.60
2023-03-04T21:34:52.306Z,5.50
2023-03-04T21:37:20.851Z,5.50
2023-03-04T21:39:48.910Z,5.50
2023-03-04T21:42:16.959Z,5.50
2023-03-04T21:44:49.721Z,5.40
2023-03-04T21:47:20.161Z,5.50
2023-03-04T21:49:48.324Z,5.50
2023-03-04T21:52:16.498Z,5.50
2023-03-04T21:54:44.663Z,5.40
2023-03-04T21:57:13.492Z,5.40
2023-03-04T21:59:41.691Z,5.50
2023-03-04T22:02:15.710Z,5.40
2023-03-04T22:04:45.088Z,5.30
2023-03-04T22:07:13.731Z,5.30
2023-03-04T22:09:41.782Z,5.30
2023-03-04T22:12:10.103Z,5.30
2023-03-04T22:14:38.101Z,5.20
2023-03-04T22:17:06.230Z,5.30
2023-03-04T22:19:34.594Z,5.30
2023-03-04T22:22:03.948Z,5.40
2023-03-04T22:24:32.000Z,5.30
2023-03-04T22:27:00.044Z,5.40
2023-03-04T22:29:28.036Z,5.30
2023-03-04T22:31:56.096Z,5.20
2023-03-04T22:34:24.203Z,5.20
2023-03-04T22:36:52.203Z,5.20
2023-03-04T22:39:22.996Z,5.20
2023-03-04T22:41:51.142Z,5.30
2023-03-04T22:44:19.199Z,5.30
2023-03-04T22:46:47.203Z,5.30
2023-03-04T22:49:15.567Z,5.30
2023-03-04T22:51:44.762Z,5.20
2023-03-04T22:54:14.154Z,5.20
2023-03-04T22:56:43.722Z,5.30
2023-03-04T22:59:12.354Z,5.20
2023-03-04T23:01:40.352Z,5.20
2023-03-04T23:04:08.679Z,5.30
2023-03-04T23:06:37.667Z,5.20
2023-03-04T23:09:06.192Z,5.20
2023-03-04T23:11:36.412Z,5.20
2023-03-04T23:14:07.841Z,5.20
2023-03-04T23:16:39.510Z,5.20
2023-03-04T23:19:08.051Z,5.20
2023-03-04T23:21:36.795Z,5.20
2023-03-04T23:24:06.979Z,5.10
2023-03-04T23:26:38.592Z,5.20
2023-03-04T23:29:11.125Z,5.20
2023-03-04T23:31:39.164Z,5.10
2023-03-04T23:34:07.714Z,5.20
2023-03-04T23:36:37.982Z,5.10
2023-03-04T23:39:07.715Z,5.10
2023-03-04T23:41:36.642Z,5.10
2023-03-04T23:44:05.655Z,5.10
2023-03-04T23:46:37.524Z,5.00
2023-03-04T23:49:06.904Z,5.00
2023-03-04T23:51:35.165Z,5.00
2023-03-04T23:54:03.173Z,5.00
2023-03-04T23:56:32.105Z,5.00
2023-03-04T23:59:00.879Z,5.00
